sensor_id;sensor_type;location;lat;lon;timestamp;pressure;altitude;pressure_sealevel;temperature;humidity
50349;BME280;36250;48.740;22.174;2023-09-19T00:00:58;100264.97;;;23.00;57.77
50349;BME280;36250;48.740;22.174;2023-09-19T00:03:24;100266.59;;;23.01;57.41
50349;BME280;36250;48.740;22.174;2023-09-19T00:05:53;100263.50;;;23.03;57.48
50349;BME280;36250;48.740;22.174;2023-09-19T00:08:18;100264.31;;;23.03;57.52
50349;BME280;36250;48.740;22.174;2023-09-19T00:10:49;100265.81;;;23.01;57.45
50349;BME280;36250;48.740;22.174;2023-09-19T00:13:14;100264.81;;;22.97;57.37
50349;BME280;36250;48.740;22.174;2023-09-19T00:15:40;100272.00;;;22.98;57.40
50349;BME280;36250;48.740;22.174;2023-09-19T00:18:06;100264.16;;;23.00;57.46
50349;BME280;36250;48.740;22.174;2023-09-19T00:20:32;100261.88;;;23.02;57.55
50349;BME280;36250;48.740;22.174;2023-09-19T00:22:57;100258.25;;;23.01;57.26
50349;BME280;36250;48.740;22.174;2023-09-19T00:25:24;100253.06;;;23.00;57.61
50349;BME280;36250;48.740;22.174;2023-09-19T00:27:50;100251.41;;;22.99;57.31
50349;BME280;36250;48.740;22.174;2023-09-19T00:30:16;100260.75;;;22.94;57.28
50349;BME280;36250;48.740;22.174;2023-09-19T00:32:46;100258.97;;;22.89;57.60
50349;BME280;36250;48.740;22.174;2023-09-19T00:35:14;100251.47;;;22.81;57.46
50349;BME280;36250;48.740;22.174;2023-09-19T00:37:42;100258.31;;;22.84;57.95
50349;BME280;36250;48.740;22.174;2023-09-19T00:40:07;100249.34;;;22.87;57.77
50349;BME280;36250;48.740;22.174;2023-09-19T00:42:42;100246.06;;;22.94;57.47
50349;BME280;36250;48.740;22.174;2023-09-19T00:45:08;100241.00;;;22.96;57.40
50349;BME280;36250;48.740;22.174;2023-09-19T00:47:40;100245.84;;;22.99;57.30
50349;BME280;36250;48.740;22.174;2023-09-19T00:50:06;100241.28;;;23.03;56.82
50349;BME280;36250;48.740;22.174;2023-09-19T00:52:34;100239.66;;;23.02;57.14
50349;BME280;36250;48.740;22.174;2023-09-19T00:55:01;100234.09;;;23.02;56.93
50349;BME280;36250;48.740;22.174;2023-09-19T00:57:27;100233.44;;;23.05;57.07
50349;BME280;36250;48.740;22.174;2023-09-19T00:59:52;100233.44;;;23.05;57.01
50349;BME280;36250;48.740;22.174;2023-09-19T01:02:19;100234.91;;;23.02;56.70
50349;BME280;36250;48.740;22.174;2023-09-19T01:04:44;100233.44;;;23.05;57.04
50349;BME280;36250;48.740;22.174;2023-09-19T01:07:10;100228.38;;;23.07;57.04
50349;BME280;36250;48.740;22.174;2023-09-19T01:09:35;100234.91;;;23.02;57.04
50349;BME280;36250;48.740;22.174;2023-09-19T01:12:01;100232.47;;;23.01;56.90
50349;BME280;36250;48.740;22.174;2023-09-19T01:14:33;100226.25;;;23.04;57.21
50349;BME280;36250;48.740;22.174;2023-09-19T01:19:32;100228.06;;;23.00;57.26
50349;BME280;36250;48.740;22.174;2023-09-19T01:30:24;100220.38;;;22.97;57.18
50349;BME280;36250;48.740;22.174;2023-09-19T01:32:51;100220.38;;;22.97;57.11
50349;BME280;36250;48.740;22.174;2023-09-19T01:35:20;100216.81;;;22.96;57.06
50349;BME280;36250;48.740;22.174;2023-09-19T01:37:45;100217.47;;;22.93;57.32
50349;BME280;36250;48.740;22.174;2023-09-19T01:40:14;100208.81;;;22.95;57.38
50349;BME280;36250;48.740;22.174;2023-09-19T01:43:07;100221.88;;;22.94;57.24
50349;BME280;36250;48.740;22.174;2023-09-19T01:45:43;100221.72;;;22.91;57.52
50349;BME280;36250;48.740;22.174;2023-09-19T01:53:21;100211.00;;;22.80;58.23
50349;BME280;36250;48.740;22.174;2023-09-19T01:55:49;100210.03;;;22.76;58.11
50349;BME280;36250;48.740;22.174;2023-09-19T02:00:44;100212.28;;;22.74;58.14
50349;BME280;36250;48.740;22.174;2023-09-19T02:03:11;100213.94;;;22.75;58.13
50349;BME280;36250;48.740;22.174;2023-09-19T02:05:37;100210.69;;;22.73;58.21
50349;BME280;36250;48.740;22.174;2023-09-19T02:08:04;100207.09;;;22.64;58.45
50349;BME280;36250;48.740;22.174;2023-09-19T02:10:29;100212.81;;;22.59;58.62
50349;BME280;36250;48.740;22.174;2023-09-19T02:12:54;100210.69;;;22.56;58.34
50349;BME280;36250;48.740;22.174;2023-09-19T02:15:19;100212.81;;;22.51;58.69
50349;BME280;36250;48.740;22.174;2023-09-19T02:17:45;100229.16;;;22.44;58.93
50349;BME280;36250;48.740;22.174;2023-09-19T02:20:11;100228.00;;;22.36;58.96
50349;BME280;36250;48.740;22.174;2023-09-19T02:22:40;100231.44;;;22.33;60.15
50349;BME280;36250;48.740;22.174;2023-09-19T02:25:05;100227.84;;;22.33;60.61
50349;BME280;36250;48.740;22.174;2023-09-19T02:27:32;100211.72;;;22.35;61.74
50349;BME280;36250;48.740;22.174;2023-09-19T02:29:57;100213.47;;;22.31;62.09
50349;BME280;36250;48.740;22.174;2023-09-19T02:32:23;100207.78;;;22.27;61.91
50349;BME280;36250;48.740;22.174;2023-09-19T02:34:48;100202.06;;;22.23;62.20
50349;BME280;36250;48.740;22.174;2023-09-19T02:37:13;100199.31;;;22.15;62.59
50349;BME280;36250;48.740;22.174;2023-09-19T02:39:41;100188.06;;;22.11;63.09
50349;BME280;36250;48.740;22.174;2023-09-19T02:42:06;100187.91;;;22.08;63.11
50349;BME280;36250;48.740;22.174;2023-09-19T02:44:31;100194.94;;;22.05;63.03
50349;BME280;36250;48.740;22.174;2023-09-19T02:46:57;100199.66;;;22.05;63.33
50349;BME280;36250;48.740;22.174;2023-09-19T02:49:22;100193.13;;;22.09;63.66
50349;BME280;36250;48.740;22.174;2023-09-19T02:51:48;100203.25;;;22.05;63.25
50349;BME280;36250;48.740;22.174;2023-09-19T02:54:13;100206.16;;;21.92;62.74
50349;BME280;36250;48.740;22.174;2023-09-19T02:56:40;100214.75;;;21.73;64.68
50349;BME280;36250;48.740;22.174;2023-09-19T02:59:06;100219.25;;;21.52;65.60
50349;BME280;36250;48.740;22.174;2023-09-19T03:01:31;100220.91;;;21.53;65.98
50349;BME280;36250;48.740;22.174;2023-09-19T03:03:57;100215.84;;;21.46;66.08
50349;BME280;36250;48.740;22.174;2023-09-19T03:06:22;100210.75;;;21.31;66.10
50349;BME280;36250;48.740;22.174;2023-09-19T03:08:49;100215.59;;;21.26;67.42
50349;BME280;36250;48.740;22.174;2023-09-19T03:11:16;100210.53;;;21.19;68.22
50349;BME280;36250;48.740;22.174;2023-09-19T03:13:43;100213.59;;;21.18;68.89
50349;BME280;36250;48.740;22.174;2023-09-19T03:16:10;100218.41;;;21.04;69.52
50349;BME280;36250;48.740;22.174;2023-09-19T03:18:36;100216.59;;;20.99;70.03
50349;BME280;36250;48.740;22.174;2023-09-19T03:21:01;100217.38;;;20.91;70.87
50349;BME280;36250;48.740;22.174;2023-09-19T03:23:27;100209.88;;;20.83;71.47
50349;BME280;36250;48.740;22.174;2023-09-19T03:25:52;100200.28;;;20.89;71.67
50349;BME280;36250;48.740;22.174;2023-09-19T03:28:18;100199.66;;;20.92;71.49
50349;BME280;36250;48.740;22.174;2023-09-19T03:30:43;100186.13;;;20.90;71.84
50349;BME280;36250;48.740;22.174;2023-09-19T03:33:08;100177.97;;;20.85;72.16
50349;BME280;36250;48.740;22.174;2023-09-19T03:35:35;100182.00;;;20.79;72.56
50349;BME280;36250;48.740;22.174;2023-09-19T03:38:01;100183.91;;;20.70;72.91
50349;BME280;36250;48.740;22.174;2023-09-19T03:40:28;100174.16;;;20.73;73.42
50349;BME280;36250;48.740;22.174;2023-09-19T03:42:53;100184.22;;;20.69;73.63
50349;BME280;36250;48.740;22.174;2023-09-19T03:45:18;100198.00;;;20.60;74.08
50349;BME280;36250;48.740;22.174;2023-09-19T03:47:44;100193.31;;;20.61;74.28
50349;BME280;36250;48.740;22.174;2023-09-19T03:50:12;100193.94;;;20.58;74.87
50349;BME280;36250;48.740;22.174;2023-09-19T03:52:37;100191.44;;;20.48;75.16
50349;BME280;36250;48.740;22.174;2023-09-19T03:55:02;100187.34;;;20.45;75.33
50349;BME280;36250;48.740;22.174;2023-09-19T03:57:29;100187.47;;;20.40;75.33
50349;BME280;36250;48.740;22.174;2023-09-19T03:59:54;100187.66;;;20.44;75.29
50349;BME280;36250;48.740;22.174;2023-09-19T04:02:20;100190.22;;;20.40;75.59
50349;BME280;36250;48.740;22.174;2023-09-19T04:04:49;100184.69;;;20.40;75.86
50349;BME280;36250;48.740;22.174;2023-09-19T04:07:15;100178.34;;;20.40;75.97
50349;BME280;36250;48.740;22.174;2023-09-19T04:09:40;100179.50;;;20.39;75.93
50349;BME280;36250;48.740;22.174;2023-09-19T04:12:07;100181.44;;;20.38;75.92
50349;BME280;36250;48.740;22.174;2023-09-19T04:14:33;100178.88;;;20.42;76.00
50349;BME280;36250;48.740;22.174;2023-09-19T04:16:59;100166.38;;;20.44;75.63
50349;BME280;36250;48.740;22.174;2023-09-19T04:19:25;100159.66;;;20.37;75.85
50349;BME280;36250;48.740;22.174;2023-09-19T04:21:50;100163.41;;;20.41;75.99
50349;BME280;36250;48.740;22.174;2023-09-19T04:24:15;100153.47;;;20.40;76.18
50349;BME280;36250;48.740;22.174;2023-09-19T04:26:41;100142.69;;;20.29;76.21
50349;BME280;36250;48.740;22.174;2023-09-19T04:29:07;100143.41;;;20.21;76.71
50349;BME280;36250;48.740;22.174;2023-09-19T04:31:36;100129.72;;;20.16;77.10
50349;BME280;36250;48.740;22.174;2023-09-19T04:34:02;100129.97;;;20.06;77.31
50349;BME280;36250;48.740;22.174;2023-09-19T04:36:28;100121.47;;;20.03;77.47
50349;BME280;36250;48.740;22.174;2023-09-19T04:38:53;100117.41;;;20.00;77.68
50349;BME280;36250;48.740;22.174;2023-09-19T04:41:18;100115.78;;;19.99;77.62
50349;BME280;36250;48.740;22.174;2023-09-19T04:43:44;100108.44;;;19.95;77.93
50349;BME280;36250;48.740;22.174;2023-09-19T04:46:09;100106.63;;;19.90;77.93
50349;BME280;36250;48.740;22.174;2023-09-19T04:48:34;100103.06;;;19.90;77.81
50349;BME280;36250;48.740;22.174;2023-09-19T04:51:00;100113.91;;;19.86;77.40
50349;BME280;36250;48.740;22.174;2023-09-19T04:53:25;100114.66;;;19.78;77.44
50349;BME280;36250;48.740;22.174;2023-09-19T04:55:53;100126.34;;;19.75;77.88
50349;BME280;36250;48.740;22.174;2023-09-19T04:58:20;100119.22;;;19.60;78.59
50349;BME280;36250;48.740;22.174;2023-09-19T05:00:45;100128.94;;;19.58;78.63
50349;BME280;36250;48.740;22.174;2023-09-19T05:03:11;100122.75;;;19.75;78.37
50349;BME280;36250;48.740;22.174;2023-09-19T05:05:36;100115.41;;;19.92;78.04
50349;BME280;36250;48.740;22.174;2023-09-19T05:08:03;100130.94;;;20.02;77.77
50349;BME280;36250;48.740;22.174;2023-09-19T05:10:30;100130.06;;;19.93;77.43
50349;BME280;36250;48.740;22.174;2023-09-19T05:12:55;100115.91;;;19.72;77.41
50349;BME280;36250;48.740;22.174;2023-09-19T05:15:21;100119.91;;;19.88;77.77
50349;BME280;36250;48.740;22.174;2023-09-19T05:17:49;100109.66;;;20.02;77.60
50349;BME280;36250;48.740;22.174;2023-09-19T05:20:15;100113.44;;;20.15;77.52
50349;BME280;36250;48.740;22.174;2023-09-19T05:22:49;100106.88;;;20.24;76.90
50349;BME280;36250;48.740;22.174;2023-09-19T05:25:15;100108.22;;;20.27;76.94
50349;BME280;36250;48.740;22.174;2023-09-19T05:27:43;100100.06;;;20.30;76.98
50349;BME280;36250;48.740;22.174;2023-09-19T05:30:08;100093.56;;;20.26;76.94
50349;BME280;36250;48.740;22.174;2023-09-19T05:32:33;100093.59;;;20.13;77.09
50349;BME280;36250;48.740;22.174;2023-09-19T05:34:59;100088.72;;;20.10;77.23
50349;BME280;36250;48.740;22.174;2023-09-19T05:37:24;100099.91;;;20.05;77.46
50349;BME280;36250;48.740;22.174;2023-09-19T05:39:51;100095.81;;;20.02;77.66
50349;BME280;36250;48.740;22.174;2023-09-19T05:42:16;100094.88;;;20.07;77.37
50349;BME280;36250;48.740;22.174;2023-09-19T05:44:42;100095.25;;;20.14;77.47
50349;BME280;36250;48.740;22.174;2023-09-19T05:47:07;100093.56;;;20.04;77.58
50349;BME280;36250;48.740;22.174;2023-09-19T05:49:34;100100.66;;;19.97;77.97
50349;BME280;36250;48.740;22.174;2023-09-19T05:51:59;100109.19;;;19.87;78.48
50349;BME280;36250;48.740;22.174;2023-09-19T05:54:26;100109.41;;;19.90;78.24
50349;BME280;36250;48.740;22.174;2023-09-19T05:56:52;100104.75;;;19.99;78.28
50349;BME280;36250;48.740;22.174;2023-09-19T05:59:18;100103.91;;;19.99;77.90
50349;BME280;36250;48.740;22.174;2023-09-19T06:01:43;100096.31;;;20.04;77.99
50349;BME280;36250;48.740;22.174;2023-09-19T06:04:09;100104.28;;;20.06;77.85
50349;BME280;36250;48.740;22.174;2023-09-19T06:06:34;100092.41;;;20.05;77.64
50349;BME280;36250;48.740;22.174;2023-09-19T06:09:05;100093.06;;;20.02;77.46
50349;BME280;36250;48.740;22.174;2023-09-19T06:11:31;100088.03;;;20.04;77.39
50349;BME280;36250;48.740;22.174;2023-09-19T06:13:59;100096.13;;;20.01;77.66
50349;BME280;36250;48.740;22.174;2023-09-19T06:16:25;100094.06;;;20.06;77.60
50349;BME280;36250;48.740;22.174;2023-09-19T06:18:51;100106.91;;;20.11;77.41
50349;BME280;36250;48.740;22.174;2023-09-19T06:21:17;100111.47;;;20.07;77.44
50349;BME280;36250;48.740;22.174;2023-09-19T06:23:43;100101.22;;;20.07;77.80
50349;BME280;36250;48.740;22.174;2023-09-19T06:26:08;100105.97;;;20.15;77.51
50349;BME280;36250;48.740;22.174;2023-09-19T06:28:34;100115.28;;;20.19;77.39
50349;BME280;36250;48.740;22.174;2023-09-19T06:31:01;100133.13;;;20.13;77.25
50349;BME280;36250;48.740;22.174;2023-09-19T06:33:27;100130.22;;;19.96;78.28
50349;BME280;36250;48.740;22.174;2023-09-19T06:35:52;100122.94;;;20.00;78.49
50349;BME280;36250;48.740;22.174;2023-09-19T06:38:24;100114.91;;;20.12;78.27
50349;BME280;36250;48.740;22.174;2023-09-19T06:40:49;100113.63;;;20.18;78.17
50349;BME280;36250;48.740;22.174;2023-09-19T06:43:14;100127.72;;;20.08;78.41
50349;BME280;36250;48.740;22.174;2023-09-19T06:45:39;100123.34;;;20.07;78.52
50349;BME280;36250;48.740;22.174;2023-09-19T06:48:05;100120.44;;;20.12;78.31
50349;BME280;36250;48.740;22.174;2023-09-19T06:50:30;100114.66;;;20.22;78.09
50349;BME280;36250;48.740;22.174;2023-09-19T06:52:56;100113.41;;;20.28;77.83
50349;BME280;36250;48.740;22.174;2023-09-19T06:55:22;100112.13;;;20.35;77.70
50349;BME280;36250;48.740;22.174;2023-09-19T06:57:52;100117.53;;;20.40;77.79
50349;BME280;36250;48.740;22.174;2023-09-19T07:00:19;100120.69;;;20.47;77.62
50349;BME280;36250;48.740;22.174;2023-09-19T07:03:00;100123.94;;;20.49;77.25
50349;BME280;36250;48.740;22.174;2023-09-19T07:05:29;100115.94;;;20.47;77.19
50349;BME280;36250;48.740;22.174;2023-09-19T07:07:56;100124.09;;;20.52;76.79
50349;BME280;36250;48.740;22.174;2023-09-19T07:10:21;100132.72;;;20.51;76.69
50349;BME280;36250;48.740;22.174;2023-09-19T07:12:54;100128.31;;;20.50;76.57
50349;BME280;36250;48.740;22.174;2023-09-19T07:15:19;100111.22;;;20.48;76.73
50349;BME280;36250;48.740;22.174;2023-09-19T07:17:45;100128.81;;;20.52;76.75
50349;BME280;36250;48.740;22.174;2023-09-19T07:20:10;100116.44;;;20.49;76.67
50349;BME280;36250;48.740;22.174;2023-09-19T07:22:41;100126.22;;;20.47;76.44
50349;BME280;36250;48.740;22.174;2023-09-19T07:25:06;100121.44;;;20.39;76.74
50349;BME280;36250;48.740;22.174;2023-09-19T07:27:31;100122.91;;;20.45;76.75
50349;BME280;36250;48.740;22.174;2023-09-19T07:29:56;100126.34;;;20.42;76.89
50349;BME280;36250;48.740;22.174;2023-09-19T07:32:22;100126.47;;;20.37;77.32
50349;BME280;36250;48.740;22.174;2023-09-19T07:34:47;100124.00;;;20.35;77.56
50349;BME280;36250;48.740;22.174;2023-09-19T07:37:12;100124.56;;;20.46;77.29
50349;BME280;36250;48.740;22.174;2023-09-19T07:39:40;100121.03;;;20.54;77.52
50349;BME280;36250;48.740;22.174;2023-09-19T07:42:06;100120.91;;;20.59;77.10
50349;BME280;36250;48.740;22.174;2023-09-19T07:44:32;100111.44;;;20.60;77.03
50349;BME280;36250;48.740;22.174;2023-09-19T07:46:57;100118.13;;;20.59;76.97
50349;BME280;36250;48.740;22.174;2023-09-19T07:49:23;100110.81;;;20.63;76.88
50349;BME280;36250;48.740;22.174;2023-09-19T07:51:48;100111.94;;;20.62;76.91
50349;BME280;36250;48.740;22.174;2023-09-19T07:54:13;100109.31;;;20.57;76.92
50349;BME280;36250;48.740;22.174;2023-09-19T07:56:39;100107.91;;;20.68;76.84
50349;BME280;36250;48.740;22.174;2023-09-19T07:59:05;100108.06;;;20.63;76.83
50349;BME280;36250;48.740;22.174;2023-09-19T08:01:30;100110.75;;;20.54;77.37
50349;BME280;36250;48.740;22.174;2023-09-19T08:03:56;100103.44;;;20.50;77.39
50349;BME280;36250;48.740;22.174;2023-09-19T08:06:21;100100.50;;;20.46;77.27
50349;BME280;36250;48.740;22.174;2023-09-19T08:08:46;100107.00;;;20.42;77.85
50349;BME280;36250;48.740;22.174;2023-09-19T08:11:11;100109.16;;;20.53;77.79
50349;BME280;36250;48.740;22.174;2023-09-19T08:13:41;100103.66;;;20.62;77.41
50349;BME280;36250;48.740;22.174;2023-09-19T08:16:09;100108.41;;;20.70;77.17
50349;BME280;36250;48.740;22.174;2023-09-19T08:18:35;100104.19;;;20.81;77.00
50349;BME280;36250;48.740;22.174;2023-09-19T08:21:00;100108.81;;;20.85;75.53
50349;BME280;36250;48.740;22.174;2023-09-19T08:23:26;100104.19;;;20.81;75.61
50349;BME280;36250;48.740;22.174;2023-09-19T08:25:55;100101.28;;;20.86;75.44
50349;BME280;36250;48.740;22.174;2023-09-19T08:28:20;100101.97;;;20.83;75.10
50349;BME280;36250;48.740;22.174;2023-09-19T08:30:49;100102.59;;;20.80;75.15
50349;BME280;36250;48.740;22.174;2023-09-19T08:33:14;100094.16;;;20.85;74.81
50349;BME280;36250;48.740;22.174;2023-09-19T08:35:42;100099.53;;;20.90;74.56
50349;BME280;36250;48.740;22.174;2023-09-19T08:38:08;100102.31;;;20.90;74.15
50349;BME280;36250;48.740;22.174;2023-09-19T08:40:38;100100.66;;;20.89;73.92
50349;BME280;36250;48.740;22.174;2023-09-19T08:43:08;100096.13;;;20.93;73.69
50349;BME280;36250;48.740;22.174;2023-09-19T08:45:34;100093.19;;;20.98;73.26
50349;BME280;36250;48.740;22.174;2023-09-19T08:48:10;100090.13;;;21.00;73.50
50349;BME280;36250;48.740;22.174;2023-09-19T08:50:43;100086.84;;;20.98;73.00
50349;BME280;36250;48.740;22.174;2023-09-19T08:53:14;100093.38;;;21.02;73.23
50349;BME280;36250;48.740;22.174;2023-09-19T08:55:40;100079.41;;;21.07;73.14
50349;BME280;36250;48.740;22.174;2023-09-19T08:58:08;100077.31;;;21.12;73.14
50349;BME280;36250;48.740;22.174;2023-09-19T09:00:35;100081.53;;;21.18;73.00
50349;BME280;36250;48.740;22.174;2023-09-19T09:03:01;100080.91;;;21.21;72.29
50349;BME280;36250;48.740;22.174;2023-09-19T09:05:28;100081.38;;;21.23;71.98
50349;BME280;36250;48.740;22.174;2023-09-19T09:07:53;100082.38;;;21.19;72.19
50349;BME280;36250;48.740;22.174;2023-09-19T09:10:21;100082.69;;;21.26;72.43
50349;BME280;36250;48.740;22.174;2023-09-19T09:12:51;100078.94;;;21.30;72.07
50349;BME280;36250;48.740;22.174;2023-09-19T09:15:17;100085.47;;;21.26;72.26
50349;BME280;36250;48.740;22.174;2023-09-19T09:17:46;100087.25;;;21.22;72.08
50349;BME280;36250;48.740;22.174;2023-09-19T09:20:11;100077.66;;;21.19;72.37
50349;BME280;36250;48.740;22.174;2023-09-19T09:22:37;100084.47;;;21.13;72.23
50349;BME280;36250;48.740;22.174;2023-09-19T09:25:05;100084.94;;;21.15;72.20
50349;BME280;36250;48.740;22.174;2023-09-19T09:27:30;100082.69;;;21.17;72.12
50349;BME280;36250;48.740;22.174;2023-09-19T09:29:57;100080.91;;;21.21;72.14
50349;BME280;36250;48.740;22.174;2023-09-19T09:32:26;100078.63;;;21.23;71.48
50349;BME280;36250;48.740;22.174;2023-09-19T09:34:54;100081.88;;;21.25;71.97
50349;BME280;36250;48.740;22.174;2023-09-19T09:37:20;100081.91;;;21.34;71.76
50349;BME280;36250;48.740;22.174;2023-09-19T09:39:50;100077.50;;;21.41;71.65
50349;BME280;36250;48.740;22.174;2023-09-19T09:45:12;100082.06;;;21.54;71.02
50349;BME280;36250;48.740;22.174;2023-09-19T09:47:41;100071.31;;;21.53;71.42
50349;BME280;36250;48.740;22.174;2023-09-19T09:50:06;100069.53;;;21.48;71.34
50349;BME280;36250;48.740;22.174;2023-09-19T09:52:43;100077.34;;;21.46;71.53
50349;BME280;36250;48.740;22.174;2023-09-19T09:55:09;100072.47;;;21.43;71.63
50349;BME280;36250;48.740;22.174;2023-09-19T09:57:35;100071.47;;;21.48;71.41
50349;BME280;36250;48.740;22.174;2023-09-19T10:00:00;100073.59;;;21.42;71.74
50349;BME280;36250;48.740;22.174;2023-09-19T10:02:38;100073.09;;;21.40;71.38
50349;BME280;36250;48.740;22.174;2023-09-19T10:05:15;100069.03;;;21.38;71.61
50349;BME280;36250;48.740;22.174;2023-09-19T10:08:11;100074.41;;;21.34;71.35
50349;BME280;36250;48.740;22.174;2023-09-19T10:10:43;100071.31;;;21.36;71.42
50349;BME280;36250;48.740;22.174;2023-09-19T10:13:18;100067.09;;;21.38;71.36
50349;BME280;36250;48.740;22.174;2023-09-19T10:15:49;100069.53;;;21.31;71.37
50349;BME280;36250;48.740;22.174;2023-09-19T10:18:22;100063.34;;;21.34;71.52
50349;BME280;36250;48.740;22.174;2023-09-19T10:20:48;100062.03;;;21.40;71.63
50349;BME280;36250;48.740;22.174;2023-09-19T10:23:17;100063.03;;;21.44;71.71
50349;BME280;36250;48.740;22.174;2023-09-19T10:25:47;100054.38;;;21.46;71.49
50349;BME280;36250;48.740;22.174;2023-09-19T10:28:13;100061.88;;;21.45;71.15
50349;BME280;36250;48.740;22.174;2023-09-19T10:30:42;100048.03;;;21.45;71.23
50349;BME280;36250;48.740;22.174;2023-09-19T10:33:12;100048.34;;;21.44;71.21
50349;BME280;36250;48.740;22.174;2023-09-19T10:35:42;100048.03;;;21.37;71.50
50349;BME280;36250;48.740;22.174;2023-09-19T10:38:07;100056.81;;;21.39;71.27
50349;BME280;36250;48.740;22.174;2023-09-19T10:40:34;100040.88;;;21.44;71.39
50349;BME280;36250;48.740;22.174;2023-09-19T10:43:04;100037.59;;;21.42;71.46
50349;BME280;36250;48.740;22.174;2023-09-19T10:45:33;100040.06;;;21.44;71.07
50349;BME280;36250;48.740;22.174;2023-09-19T10:47:59;100037.13;;;21.49;70.93
50349;BME280;36250;48.740;22.174;2023-09-19T10:50:25;100034.50;;;21.52;71.24
50349;BME280;36250;48.740;22.174;2023-09-19T10:52:53;100026.34;;;21.56;70.97
50349;BME280;36250;48.740;22.174;2023-09-19T10:55:23;100022.41;;;21.57;70.86
50349;BME280;36250;48.740;22.174;2023-09-19T10:57:50;100014.94;;;21.57;71.35
50349;BME280;36250;48.740;22.174;2023-09-19T11:00:15;100020.97;;;21.59;70.90
50349;BME280;36250;48.740;22.174;2023-09-19T11:05:34;100015.28;;;21.56;71.24
50349;BME280;36250;48.740;22.174;2023-09-19T11:07:59;100005.31;;;21.64;71.32
50349;BME280;36250;48.740;22.174;2023-09-19T11:13:23;100004.47;;;21.72;70.77
50349;BME280;36250;48.740;22.174;2023-09-19T11:26:43;99998.47;;;21.78;71.83
50349;BME280;36250;48.740;22.174;2023-09-19T11:29:25;100001.41;;;21.73;72.20
50349;BME280;36250;48.740;22.174;2023-09-19T11:31:50;99995.22;;;21.68;72.34
50349;BME280;36250;48.740;22.174;2023-09-19T11:37:00;99997.50;;;21.66;73.48
50349;BME280;36250;48.740;22.174;2023-09-19T11:39:29;99987.53;;;21.65;73.38
50349;BME280;36250;48.740;22.174;2023-09-19T11:41:54;99989.84;;;21.63;73.70
50349;BME280;36250;48.740;22.174;2023-09-19T11:46:55;99991.34;;;21.51;74.27
50349;BME280;36250;48.740;22.174;2023-09-19T11:49:30;99990.16;;;21.52;74.55
50349;BME280;36250;48.740;22.174;2023-09-19T11:51:57;100000.28;;;21.48;75.10
50349;BME280;36250;48.740;22.174;2023-09-19T11:54:24;100004.22;;;21.39;75.73
50349;BME280;36250;48.740;22.174;2023-09-19T11:56:53;100018.50;;;21.15;77.18
50349;BME280;36250;48.740;22.174;2023-09-19T11:59:26;100019.13;;;21.04;77.15
50349;BME280;36250;48.740;22.174;2023-09-19T12:02:06;100031.97;;;20.82;78.58
50349;BME280;36250;48.740;22.174;2023-09-19T12:07:08;100044.72;;;20.44;81.37
50349;BME280;36250;48.740;22.174;2023-09-19T12:09:40;100050.81;;;20.33;81.34
50349;BME280;36250;48.740;22.174;2023-09-19T12:12:08;100047.78;;;20.20;nan
50349;BME280;36250;48.740;22.174;2023-09-19T12:14:34;100042.66;;;20.05;82.75
50349;BME280;36250;48.740;22.174;2023-09-19T12:17:00;100040.13;;;20.17;82.41
50349;BME280;36250;48.740;22.174;2023-09-19T12:19:26;100033.97;;;20.20;81.64
50349;BME280;36250;48.740;22.174;2023-09-19T12:22:02;100035.13;;;20.19;81.61
50349;BME280;36250;48.740;22.174;2023-09-19T12:24:31;100048.69;;;20.29;81.81
50349;BME280;36250;48.740;22.174;2023-09-19T12:27:04;100037.53;;;20.43;81.55
50349;BME280;36250;48.740;22.174;2023-09-19T12:29:30;100040.16;;;20.57;81.22
50349;BME280;36250;48.740;22.174;2023-09-19T12:31:57;100040.84;;;20.62;80.83
50349;BME280;36250;48.740;22.174;2023-09-19T12:34:23;100042.94;;;20.57;80.57
50349;BME280;36250;48.740;22.174;2023-09-19T12:37:11;100050.88;;;20.50;81.05
50349;BME280;36250;48.740;22.174;2023-09-19T12:39:40;100055.38;;;20.37;81.78
50349;BME280;36250;48.740;22.174;2023-09-19T12:42:07;100049.81;;;20.28;82.07
50349;BME280;36250;48.740;22.174;2023-09-19T12:44:34;100050.31;;;20.30;82.02
50349;BME280;36250;48.740;22.174;2023-09-19T12:47:00;100055.84;;;20.30;82.22
50349;BME280;36250;48.740;22.174;2023-09-19T12:49:26;100058.94;;;20.29;82.36
50349;BME280;36250;48.740;22.174;2023-09-19T12:51:54;100056.19;;;20.29;82.41
50349;BME280;36250;48.740;22.174;2023-09-19T12:54:20;100056.03;;;20.34;82.22
50349;BME280;36250;48.740;22.174;2023-09-19T12:56:47;100063.31;;;20.30;82.25
50349;BME280;36250;48.740;22.174;2023-09-19T12:59:14;100061.38;;;20.30;82.74
50349;BME280;36250;48.740;22.174;2023-09-19T13:01:40;100066.28;;;20.34;82.59
50349;BME280;36250;48.740;22.174;2023-09-19T13:06:51;100057.00;;;20.29;83.01
50349;BME280;36250;48.740;22.174;2023-09-19T13:09:17;100061.28;;;20.44;83.00
50349;BME280;36250;48.740;22.174;2023-09-19T13:11:42;100064.91;;;20.53;82.38
50349;BME280;36250;48.740;22.174;2023-09-19T13:14:13;100068.34;;;20.59;82.24
50349;BME280;36250;48.740;22.174;2023-09-19T13:24:57;100068.06;;;20.77;81.61
50349;BME280;36250;48.740;22.174;2023-09-19T13:27:24;100062.56;;;20.86;81.78
50349;BME280;36250;48.740;22.174;2023-09-19T13:29:49;100063.91;;;20.97;81.65
50349;BME280;36250;48.740;22.174;2023-09-19T13:32:14;100056.56;;;21.01;81.27
50349;BME280;36250;48.740;22.174;2023-09-19T13:34:39;100065.91;;;21.05;81.20
50349;BME280;36250;48.740;22.174;2023-09-19T13:37:04;100065.56;;;21.15;80.65